Tres Ritos, New Mexico
Current Conditions -  °F | °C
As of 1:35 AM on Saturday 20 Dec 2014 (Local Time) from KSKX Reporting Station
Clear Clear  
Wind Chill:   Ceiling: Unl
Heat Index: 12°   Visibility: 10mi
Dew Point:   Wind: 7mph
Humidity: 85%   Direction: 10°N
Pressure: 30.17"   Gusts: NA
Location:  36.1892°N, 105.688°W
Report Text: KSKX 200835Z AUTO 01006KT 10SM CLR M11/M13 A3017 RMK AO1
Loading
Personal Weather Stations






























Interactive Weather Map New forecast layout! Learn more

10-Day Weather Forecast

Advertisements
Track Severe Weather on mobile